Terminal Aerodrome Forecast
Issued by NWS Spokane, WA

Home | Current Version | Previous Version | Text Only | Print | Product List | Glossary On
Versions: 1 2 3 4 5 6 7 8 9 10 11 12 13 14 15 16 17 18 19 20 21 22
000
FTUS46 KOTX 122259 AAB
TAFGEG
TAF AMD
KGEG 122259Z 1223/1318 VRB03KT 4SM BR OVC007
     FM130000 VRB03KT 6SM BR OVC008
     FM130300 VRB03KT 6SM BR OVC005
     FM130600 02004KT 3SM BR OVC003=

USA.gov is the U.S. government's official web portal to all federal, state and local government web resources and services.